createdAt,value
2023-02-08T00:00:06.396Z,7.97
2023-02-08T00:00:38.932Z,14.02
2023-02-08T00:01:11.278Z,11.53
2023-02-08T00:01:42.643Z,8.77
2023-02-08T00:02:13.954Z,9.88
2023-02-08T00:02:45.322Z,9.88
2023-02-08T00:03:16.734Z,10.48
2023-02-08T00:03:48.140Z,10.52
2023-02-08T00:04:19.504Z,11.98
2023-02-08T00:04:50.818Z,12.35
2023-02-08T00:05:22.240Z,9.38
2023-02-08T00:05:53.579Z,9.27
2023-02-08T00:06:24.982Z,9.60
2023-02-08T00:06:56.340Z,11.73
2023-02-08T00:07:27.746Z,14.15
2023-02-08T00:07:59.081Z,9.10
2023-02-08T00:08:30.599Z,9.43
2023-02-08T00:09:01.965Z,11.77
2023-02-08T00:09:33.362Z,10.80
2023-02-08T00:10:04.916Z,11.63
2023-02-08T00:10:36.274Z,9.52
2023-02-08T00:11:07.879Z,11.93
2023-02-08T00:11:39.211Z,10.47
2023-02-08T00:12:10.574Z,12.10
2023-02-08T00:12:42.013Z,9.98
2023-02-08T00:13:13.352Z,11.55
2023-02-08T00:13:44.744Z,12.45
2023-02-08T00:14:16.087Z,10.43
2023-02-08T00:14:47.442Z,8.50
2023-02-08T00:15:18.958Z,9.00
2023-02-08T00:15:52.101Z,9.70
2023-02-08T00:16:23.482Z,12.73
2023-02-08T00:16:54.836Z,11.32
2023-02-08T00:17:27.171Z,11.90
2023-02-08T00:17:58.511Z,12.18
2023-02-08T00:18:29.902Z,12.15
2023-02-08T00:19:01.214Z,14.85
2023-02-08T00:19:32.547Z,8.60
2023-02-08T00:20:04.358Z,10.90
2023-02-08T00:20:35.693Z,13.05
2023-02-08T00:21:14.692Z,14.60
2023-02-08T00:21:46.053Z,10.18
2023-02-08T00:22:17.380Z,11.43
2023-02-08T00:22:48.849Z,9.85
2023-02-08T00:23:20.158Z,9.63
2023-02-08T00:23:51.501Z,11.45
2023-02-08T00:24:22.815Z,10.70
2023-02-08T00:24:54.127Z,9.13
2023-02-08T00:25:25.506Z,12.18
2023-02-08T00:25:56.882Z,14.10
2023-02-08T00:26:28.225Z,10.77
2023-02-08T00:26:59.571Z,10.65
2023-02-08T00:27:30.921Z,12.05
2023-02-08T00:28:04.576Z,12.68
2023-02-08T00:28:36.554Z,14.45
2023-02-08T00:29:07.902Z,7.72
2023-02-08T00:29:39.217Z,11.60
2023-02-08T00:30:10.746Z,13.02
2023-02-08T00:30:43.005Z,11.30
2023-02-08T00:31:14.876Z,10.02
2023-02-08T00:31:46.325Z,11.70
2023-02-08T00:32:17.666Z,10.48
2023-02-08T00:32:49.278Z,9.63
2023-02-08T00:33:20.593Z,11.52
2023-02-08T00:33:51.912Z,12.40
2023-02-08T00:34:23.258Z,13.25
2023-02-08T00:34:54.596Z,9.57
2023-02-08T00:35:25.942Z,14.05
2023-02-08T00:36:00.552Z,11.60
2023-02-08T00:36:31.887Z,10.43
2023-02-08T00:37:03.254Z,13.25
2023-02-08T00:37:34.587Z,13.38
2023-02-08T00:38:05.923Z,13.98
2023-02-08T00:38:37.299Z,13.32
2023-02-08T00:39:08.631Z,11.18
2023-02-08T00:39:39.974Z,10.55
2023-02-08T00:40:11.707Z,11.57
2023-02-08T00:40:43.034Z,10.57
2023-02-08T00:41:14.423Z,11.77
2023-02-08T00:41:45.760Z,12.32
2023-02-08T00:42:17.303Z,12.93
2023-02-08T00:42:48.620Z,12.60
2023-02-08T00:43:19.961Z,13.13
2023-02-08T00:43:51.266Z,13.38
2023-02-08T00:44:22.637Z,11.73
2023-02-08T00:44:53.959Z,10.93
2023-02-08T00:45:25.371Z,15.32
2023-02-08T00:45:57.536Z,13.27
2023-02-08T00:46:28.898Z,13.60
2023-02-08T00:47:00.296Z,11.35
2023-02-08T00:47:31.632Z,16.25
2023-02-08T00:48:02.982Z,10.20
2023-02-08T00:48:34.322Z,12.48
2023-02-08T00:49:05.655Z,10.95
2023-02-08T00:49:36.972Z,13.65
2023-02-08T00:50:09.735Z,16.13
2023-02-08T00:50:41.380Z,13.52
2023-02-08T00:51:13.720Z,11.50
2023-02-08T00:51:45.073Z,10.52
2023-02-08T00:52:16.506Z,14.25
2023-02-08T00:52:47.840Z,11.82
2023-02-08T00:53:19.164Z,14.33
2023-02-08T00:53:50.491Z,13.02
2023-02-08T00:54:22.018Z,12.35
2023-02-08T00:54:53.351Z,17.42
2023-02-08T00:55:24.715Z,13.27
2023-02-08T00:55:56.481Z,13.73
2023-02-08T00:56:27.815Z,12.20
2023-02-08T00:56:59.165Z,13.73
2023-02-08T00:57:31.873Z,12.65
2023-02-08T00:58:03.232Z,12.80
2023-02-08T00:58:34.866Z,12.27
2023-02-08T00:59:06.268Z,13.35
2023-02-08T00:59:37.610Z,15.15
2023-02-08T01:00:10.816Z,10.43
2023-02-08T01:00:42.409Z,14.00
2023-02-08T01:01:13.937Z,14.30
2023-02-08T01:01:45.400Z,12.77
2023-02-08T01:02:16.808Z,13.93
2023-02-08T01:02:48.139Z,12.27
2023-02-08T01:03:20.161Z,16.73
2023-02-08T01:03:51.504Z,14.40
2023-02-08T01:04:22.828Z,13.60
2023-02-08T01:04:54.187Z,13.10
2023-02-08T01:05:25.505Z,13.90
2023-02-08T01:06:00.405Z,11.93
2023-02-08T01:06:31.757Z,13.48
2023-02-08T01:07:03.345Z,13.30
2023-02-08T01:07:36.147Z,14.75
2023-02-08T01:08:07.480Z,16.50
2023-02-08T01:08:38.821Z,12.98
2023-02-08T01:09:10.135Z,11.73
2023-02-08T01:09:41.462Z,12.98
2023-02-08T01:10:12.862Z,13.00
2023-02-08T01:10:44.193Z,14.87
2023-02-08T01:11:16.920Z,13.38
2023-02-08T01:11:48.384Z,13.30
2023-02-08T01:12:19.860Z,13.10
2023-02-08T01:12:51.205Z,16.25
2023-02-08T01:13:22.543Z,13.82
2023-02-08T01:13:54.816Z,12.15
2023-02-08T01:14:26.628Z,11.18
2023-02-08T01:14:58.040Z,16.58
2023-02-08T01:15:29.375Z,13.07
2023-02-08T01:16:18.032Z,10.25
2023-02-08T01:16:49.400Z,14.98
2023-02-08T01:17:20.719Z,11.35
2023-02-08T01:17:55.761Z,14.82
2023-02-08T01:18:27.091Z,11.32
2023-02-08T01:18:59.165Z,13.15
2023-02-08T01:19:30.566Z,15.18
2023-02-08T01:20:01.970Z,12.80
2023-02-08T01:20:34.767Z,14.50
2023-02-08T01:21:07.339Z,11.70
2023-02-08T01:21:39.721Z,13.57
2023-02-08T01:22:11.057Z,14.35
2023-02-08T01:22:42.376Z,14.57
2023-02-08T01:23:13.701Z,11.25
2023-02-08T01:23:45.863Z,11.23
2023-02-08T01:24:17.611Z,12.23
2023-02-08T01:24:48.962Z,11.68
2023-02-08T01:25:20.304Z,13.75
2023-02-08T01:25:51.656Z,15.23
2023-02-08T01:26:23.522Z,12.93
2023-02-08T01:26:54.850Z,13.63
2023-02-08T01:27:26.197Z,12.32
2023-02-08T01:27:57.600Z,11.40
2023-02-08T01:28:28.988Z,13.40
2023-02-08T01:29:00.767Z,15.25
2023-02-08T01:29:32.125Z,12.45
2023-02-08T01:30:03.862Z,11.25
2023-02-08T01:30:35.256Z,13.23
2023-02-08T01:31:07.450Z,12.23
2023-02-08T01:31:40.031Z,12.18
2023-02-08T01:32:11.401Z,11.32
2023-02-08T01:32:42.732Z,11.15
2023-02-08T01:33:14.147Z,15.40
2023-02-08T01:33:45.534Z,12.60
2023-02-08T01:34:16.852Z,14.63
2023-02-08T01:34:48.194Z,14.95
2023-02-08T01:35:19.594Z,11.38
2023-02-08T01:35:54.018Z,11.82
2023-02-08T01:36:26.148Z,11.90
2023-02-08T01:36:57.482Z,14.23
2023-02-08T01:37:28.784Z,11.82
2023-02-08T01:38:00.128Z,13.32
2023-02-08T01:38:31.684Z,10.73
2023-02-08T01:39:03.646Z,12.35
2023-02-08T01:39:34.989Z,13.98
2023-02-08T01:40:06.719Z,13.83
2023-02-08T01:40:38.180Z,11.75
2023-02-08T01:41:13.629Z,10.93
2023-02-08T01:41:45.015Z,14.55
2023-02-08T01:42:17.500Z,12.15
2023-02-08T01:42:48.838Z,10.63
2023-02-08T01:43:22.600Z,13.70
2023-02-08T01:43:59.699Z,14.00
2023-02-08T01:44:49.800Z,12.52
2023-02-08T01:45:24.409Z,11.55
2023-02-08T01:45:55.802Z,12.75
2023-02-08T01:46:28.378Z,13.97
2023-02-08T01:46:59.714Z,11.23
2023-02-08T01:47:31.092Z,11.00
2023-02-08T01:48:10.827Z,15.23
2023-02-08T01:48:42.151Z,13.18
2023-02-08T01:49:19.375Z,10.35
2023-02-08T01:49:50.891Z,11.17
2023-02-08T01:50:23.043Z,13.45
2023-02-08T01:51:07.509Z,12.90
2023-02-08T01:51:41.670Z,11.55
2023-02-08T01:52:17.740Z,11.50
2023-02-08T01:52:49.298Z,11.70
2023-02-08T01:53:21.167Z,12.32
2023-02-08T01:53:53.217Z,9.67
2023-02-08T01:54:26.003Z,10.30
2023-02-08T01:55:00.173Z,12.10
2023-02-08T01:55:37.947Z,12.70
2023-02-08T01:56:14.313Z,11.40
2023-02-08T01:56:47.103Z,11.68
2023-02-08T01:57:19.794Z,11.82
2023-02-08T01:57:52.803Z,14.10
2023-02-08T01:58:25.804Z,13.95
2023-02-08T01:58:59.230Z,11.88
2023-02-08T01:59:33.992Z,11.10
2023-02-08T02:00:12.057Z,11.85
2023-02-08T02:00:43.689Z,12.80
2023-02-08T02:01:16.049Z,11.75
2023-02-08T02:01:48.464Z,13.70
2023-02-08T02:02:21.021Z,11.05
2023-02-08T02:02:53.367Z,9.97
2023-02-08T02:03:24.909Z,10.17
2023-02-08T02:03:56.798Z,11.68
2023-02-08T02:04:28.487Z,11.43
2023-02-08T02:05:00.966Z,10.90
2023-02-08T02:05:39.246Z,10.82
2023-02-08T02:06:16.453Z,13.05
2023-02-08T02:06:51.132Z,10.82
2023-02-08T02:07:26.098Z,11.88
2023-02-08T02:07:58.136Z,12.63
2023-02-08T02:08:30.202Z,13.50
2023-02-08T02:09:12.001Z,9.93
2023-02-08T02:10:02.055Z,11.20
2023-02-08T02:10:34.368Z,10.00
2023-02-08T02:11:05.792Z,9.82
2023-02-08T02:11:37.193Z,9.85
2023-02-08T02:12:09.042Z,10.82
2023-02-08T02:12:41.227Z,10.48
2023-02-08T02:13:14.535Z,10.43
2023-02-08T02:13:47.269Z,10.13
2023-02-08T02:14:18.651Z,10.02
2023-02-08T02:14:50.631Z,11.05
2023-02-08T02:15:21.967Z,13.35
2023-02-08T02:15:53.970Z,10.45
2023-02-08T02:16:25.399Z,10.27
2023-02-08T02:16:59.561Z,9.07
2023-02-08T02:17:30.990Z,9.57
2023-02-08T02:18:03.114Z,8.93
2023-02-08T02:18:34.482Z,9.73
2023-02-08T02:19:07.339Z,10.33
2023-02-08T02:19:53.958Z,11.07
2023-02-08T02:20:25.347Z,10.45
2023-02-08T02:21:10.882Z,8.57
2023-02-08T02:21:48.060Z,10.00
2023-02-08T02:22:31.308Z,10.13
2023-02-08T02:23:28.100Z,9.32
2023-02-08T02:24:02.489Z,9.90
2023-02-08T02:25:12.180Z,8.55
2023-02-08T02:26:02.052Z,8.63
2023-02-08T02:26:41.925Z,10.27
2023-02-08T02:27:19.083Z,8.68
2023-02-08T02:28:05.388Z,8.40
2023-02-08T02:28:45.649Z,8.43
2023-02-08T02:29:32.009Z,11.45
2023-02-08T02:30:16.602Z,13.40
2023-02-08T02:30:47.930Z,8.60
2023-02-08T02:31:37.945Z,9.23
2023-02-08T02:32:12.367Z,11.15
2023-02-08T02:33:01.897Z,9.65
2023-02-08T02:33:43.068Z,11.93
2023-02-08T02:34:23.694Z,7.75
2023-02-08T02:34:54.981Z,8.90
2023-02-08T02:35:38.322Z,8.73
2023-02-08T02:36:45.279Z,10.02
2023-02-08T02:37:28.590Z,9.00
2023-02-08T02:37:59.917Z,9.70
2023-02-08T02:38:40.506Z,12.05
2023-02-08T02:39:17.805Z,7.28
2023-02-08T02:40:03.044Z,10.07
2023-02-08T02:40:37.457Z,10.57
2023-02-08T02:41:25.001Z,7.97
2023-02-08T02:42:00.632Z,9.07
2023-02-08T02:42:31.943Z,7.95
2023-02-08T02:43:12.151Z,9.48
2023-02-08T02:43:50.659Z,6.50
2023-02-08T02:44:40.103Z,10.77
2023-02-08T02:45:11.423Z,7.47
2023-02-08T02:46:02.981Z,12.13
2023-02-08T02:46:38.939Z,8.73
2023-02-08T02:47:19.077Z,9.63
2023-02-08T02:48:09.149Z,9.95
2023-02-08T02:48:45.166Z,7.38
2023-02-08T02:49:45.653Z,9.75
2023-02-08T02:50:23.327Z,9.98
2023-02-08T02:51:05.736Z,8.93
2023-02-08T02:51:37.055Z,7.50
2023-02-08T02:52:12.360Z,10.23
2023-02-08T02:52:46.289Z,7.43
2023-02-08T02:53:24.964Z,9.30
2023-02-08T02:54:28.582Z,7.85
2023-02-08T02:55:03.346Z,8.13
2023-02-08T02:55:39.799Z,8.15
2023-02-08T02:56:17.885Z,7.78
2023-02-08T02:56:50.932Z,10.38
2023-02-08T02:57:26.112Z,10.98
2023-02-08T02:57:58.062Z,8.45
2023-02-08T02:58:30.684Z,9.07
2023-02-08T02:59:04.873Z,5.90
2023-02-08T02:59:37.306Z,9.88
2023-02-08T03:00:09.908Z,9.50
2023-02-08T03:00:41.648Z,9.05
2023-02-08T03:01:13.589Z,7.80
2023-02-08T03:01:46.161Z,9.05
2023-02-08T03:02:17.501Z,8.23
2023-02-08T03:02:48.818Z,7.75
2023-02-08T03:03:22.232Z,6.22
2023-02-08T03:03:54.012Z,7.38
2023-02-08T03:04:34.623Z,5.97
2023-02-08T03:05:07.018Z,8.45
2023-02-08T03:05:38.373Z,8.85
2023-02-08T03:06:12.145Z,7.13
2023-02-08T03:06:43.464Z,10.45
2023-02-08T03:07:20.557Z,7.70
2023-02-08T03:08:01.269Z,8.13
2023-02-08T03:08:51.198Z,6.95
2023-02-08T03:09:29.373Z,8.32
2023-02-08T03:10:06.757Z,8.88
2023-02-08T03:10:49.711Z,8.48
2023-02-08T03:11:25.270Z,8.95
2023-02-08T03:12:16.840Z,7.88
2023-02-08T03:13:31.204Z,9.50
2023-02-08T03:14:21.016Z,7.25
2023-02-08T03:14:55.191Z,7.82
2023-02-08T03:15:29.553Z,8.23
2023-02-08T03:16:00.879Z,6.32
2023-02-08T03:16:50.716Z,7.00
2023-02-08T03:17:40.674Z,8.57
2023-02-08T03:18:11.998Z,8.82
2023-02-08T03:18:46.306Z,9.65
2023-02-08T03:19:36.446Z,9.77
2023-02-08T03:20:07.797Z,7.20
2023-02-08T03:20:44.666Z,6.43
2023-02-08T03:21:25.342Z,8.00
2023-02-08T03:22:10.809Z,6.65
2023-02-08T03:22:42.128Z,7.95
2023-02-08T03:23:13.409Z,7.28
2023-02-08T03:24:04.970Z,6.35
2023-02-08T03:24:55.165Z,8.43
2023-02-08T03:25:40.941Z,7.90
2023-02-08T03:26:30.674Z,9.77
2023-02-08T03:27:08.656Z,8.38
2023-02-08T03:27:44.732Z,6.47
2023-02-08T03:28:26.944Z,7.03
2023-02-08T03:29:09.384Z,7.78
2023-02-08T03:30:02.496Z,8.73
2023-02-08T03:30:33.907Z,6.28
2023-02-08T03:31:05.392Z,8.32
2023-02-08T03:31:48.412Z,7.78
2023-02-08T03:32:24.251Z,7.78
2023-02-08T03:33:00.221Z,7.32
2023-02-08T03:33:37.583Z,8.63
2023-02-08T03:34:11.417Z,7.25
2023-02-08T03:35:01.413Z,7.65
2023-02-08T03:35:41.869Z,9.02
2023-02-08T03:36:36.302Z,7.45
2023-02-08T03:37:10.197Z,7.38
2023-02-08T03:37:45.409Z,6.22
2023-02-08T03:38:19.975Z,8.77
2023-02-08T03:38:53.293Z,14.60
2023-02-08T03:39:26.894Z,10.73
2023-02-08T03:40:01.693Z,8.32
2023-02-08T03:40:41.744Z,9.57
2023-02-08T03:41:15.589Z,6.93
2023-02-08T03:41:48.606Z,6.95
2023-02-08T03:42:23.935Z,5.85
2023-02-08T03:42:57.370Z,9.50
2023-02-08T03:43:50.434Z,7.63
2023-02-08T03:44:27.867Z,8.57
2023-02-08T03:45:01.591Z,6.75
2023-02-08T03:45:36.336Z,6.25
2023-02-08T03:46:11.246Z,8.77
2023-02-08T03:46:46.455Z,7.63
2023-02-08T03:47:17.782Z,5.93
2023-02-08T03:47:50.165Z,6.30
2023-02-08T03:48:23.247Z,8.43
2023-02-08T03:48:57.131Z,6.82
2023-02-08T03:49:31.090Z,7.25
2023-02-08T03:50:05.058Z,7.25
2023-02-08T03:50:37.922Z,8.05
2023-02-08T03:51:09.597Z,7.85
2023-02-08T03:51:41.071Z,8.03
2023-02-08T03:52:12.516Z,7.40
2023-02-08T03:52:47.653Z,7.07
2023-02-08T03:53:20.712Z,6.10
2023-02-08T03:53:53.773Z,8.23
2023-02-08T03:54:27.306Z,8.52
2023-02-08T03:55:06.156Z,7.88
2023-02-08T03:55:38.792Z,6.90
2023-02-08T03:56:30.462Z,7.82
2023-02-08T03:57:08.122Z,8.80
2023-02-08T03:57:52.004Z,9.13
2023-02-08T03:58:26.154Z,8.32
2023-02-08T03:59:02.836Z,8.52
2023-02-08T03:59:39.552Z,7.75
2023-02-08T04:00:13.536Z,8.65
2023-02-08T04:00:48.554Z,6.85
2023-02-08T04:01:24.948Z,6.93
2023-02-08T04:02:03.630Z,8.93
2023-02-08T04:02:37.621Z,8.70
2023-02-08T04:03:12.309Z,8.65
2023-02-08T04:03:44.793Z,6.13
2023-02-08T04:04:17.931Z,6.53
2023-02-08T04:04:50.067Z,6.43
2023-02-08T04:05:22.149Z,8.25
2023-02-08T04:05:54.054Z,5.97
2023-02-08T04:06:25.394Z,8.00
2023-02-08T04:06:56.719Z,9.35
2023-02-08T04:07:28.088Z,5.57
2023-02-08T04:07:59.419Z,4.43
2023-02-08T04:08:30.769Z,8.02
2023-02-08T04:09:02.103Z,10.43
2023-02-08T04:09:33.568Z,6.40
2023-02-08T04:10:05.071Z,9.13
2023-02-08T04:10:36.450Z,7.20
2023-02-08T04:11:07.790Z,5.53
2023-02-08T04:11:39.116Z,8.45
2023-02-08T04:12:10.618Z,8.05
2023-02-08T04:12:42.637Z,9.25
2023-02-08T04:13:14.024Z,7.38
2023-02-08T04:13:45.344Z,7.88
2023-02-08T04:14:16.669Z,6.55
2023-02-08T04:14:48.008Z,6.53
2023-02-08T04:15:19.322Z,6.80
2023-02-08T04:15:50.700Z,7.68
2023-02-08T04:16:22.053Z,7.25
2023-02-08T04:16:53.393Z,7.40
2023-02-08T04:17:24.744Z,4.93
2023-02-08T04:17:56.079Z,6.47
2023-02-08T04:18:27.462Z,7.90
2023-02-08T04:18:58.791Z,6.53
2023-02-08T04:19:30.103Z,6.57
2023-02-08T04:20:01.489Z,7.60
2023-02-08T04:20:32.812Z,7.90
2023-02-08T04:21:04.465Z,6.60
2023-02-08T04:21:35.820Z,8.77
2023-02-08T04:22:07.158Z,6.72
2023-02-08T04:22:38.682Z,8.02
2023-02-08T04:23:10.017Z,7.95
2023-02-08T04:23:41.337Z,9.00
2023-02-08T04:24:12.653Z,8.65
2023-02-08T04:24:43.984Z,5.93
2023-02-08T04:25:15.369Z,7.68
2023-02-08T04:25:46.714Z,7.65
2023-02-08T04:26:18.100Z,5.25
2023-02-08T04:26:49.427Z,7.88
2023-02-08T04:27:20.784Z,8.30
2023-02-08T04:27:52.206Z,5.80
2023-02-08T04:28:23.610Z,7.13
2023-02-08T04:28:54.944Z,6.97
2023-02-08T04:29:26.292Z,6.35
2023-02-08T04:29:57.666Z,5.82
2023-02-08T04:30:29.153Z,7.88
2023-02-08T04:31:00.593Z,5.57
2023-02-08T04:31:32.120Z,6.45
2023-02-08T04:32:03.551Z,6.03
2023-02-08T04:32:34.898Z,7.80
2023-02-08T04:33:06.478Z,6.72
2023-02-08T04:33:37.846Z,6.65
2023-02-08T04:34:09.181Z,10.40
2023-02-08T04:34:40.788Z,6.22
2023-02-08T04:35:12.099Z,5.32
2023-02-08T04:35:43.505Z,6.10
2023-02-08T04:36:14.810Z,6.68
2023-02-08T04:36:46.217Z,7.72
2023-02-08T04:37:17.557Z,8.30
2023-02-08T04:37:48.921Z,5.25
2023-02-08T04:38:20.247Z,7.47
2023-02-08T04:38:51.606Z,6.45
2023-02-08T04:39:23.015Z,6.82
2023-02-08T04:39:54.341Z,6.50
2023-02-08T04:40:25.699Z,8.13
2023-02-08T04:40:57.041Z,8.73
2023-02-08T04:41:28.422Z,5.55
2023-02-08T04:42:01.233Z,6.90
2023-02-08T04:42:34.651Z,6.70
2023-02-08T04:43:05.985Z,7.30
2023-02-08T04:43:37.537Z,7.20
2023-02-08T04:44:08.894Z,7.13
2023-02-08T04:44:40.227Z,10.00
2023-02-08T04:45:11.626Z,8.38
2023-02-08T04:45:42.977Z,8.20
2023-02-08T04:46:14.824Z,8.57
2023-02-08T04:46:46.184Z,7.88
2023-02-08T04:47:17.558Z,6.15
2023-02-08T04:47:48.894Z,8.02
2023-02-08T04:48:20.382Z,8.32
2023-02-08T04:48:51.705Z,8.18
2023-02-08T04:49:23.077Z,8.80
2023-02-08T04:49:54.411Z,7.70
2023-02-08T04:50:25.725Z,6.32
2023-02-08T04:50:57.641Z,6.85
2023-02-08T04:51:29.026Z,6.43
2023-02-08T04:52:00.403Z,11.80
2023-02-08T04:52:32.089Z,6.97
2023-02-08T04:53:03.508Z,6.57
2023-02-08T04:53:35.018Z,7.03
2023-02-08T04:54:06.410Z,6.43
2023-02-08T04:54:39.930Z,6.90
2023-02-08T04:55:12.629Z,6.97
2023-02-08T04:55:43.958Z,7.95
2023-02-08T04:56:15.353Z,7.63
2023-02-08T04:56:46.685Z,7.22
2023-02-08T04:57:20.649Z,7.57
2023-02-08T04:57:52.005Z,7.05
2023-02-08T04:58:23.702Z,7.32
2023-02-08T04:58:55.043Z,7.47
2023-02-08T04:59:26.403Z,9.43
2023-02-08T05:00:00.052Z,8.93
2023-02-08T05:00:31.869Z,6.78
2023-02-08T05:01:07.463Z,7.32
2023-02-08T05:01:39.011Z,6.68
2023-02-08T05:02:10.402Z,8.00
2023-02-08T05:02:41.724Z,7.13
2023-02-08T05:03:13.391Z,6.57
2023-02-08T05:03:44.956Z,7.18
2023-02-08T05:04:16.292Z,7.50
2023-02-08T05:04:47.641Z,7.07
2023-02-08T05:05:19.015Z,6.67
2023-02-08T05:05:57.655Z,6.35
2023-02-08T05:06:29.023Z,7.00
2023-02-08T05:07:00.395Z,6.97
2023-02-08T05:07:31.892Z,6.20
2023-02-08T05:08:03.353Z,7.97
2023-02-08T05:08:34.713Z,8.98
2023-02-08T05:09:09.284Z,7.25
2023-02-08T05:09:40.641Z,6.30
2023-02-08T05:10:12.063Z,5.70
2023-02-08T05:10:46.195Z,7.10
2023-02-08T05:11:21.238Z,5.72
2023-02-08T05:11:52.559Z,7.18
2023-02-08T05:12:24.008Z,9.63
2023-02-08T05:12:55.372Z,7.15
2023-02-08T05:13:26.752Z,7.50
2023-02-08T05:13:58.131Z,7.82
2023-02-08T05:14:29.504Z,8.10
2023-02-08T05:15:00.854Z,6.57
2023-02-08T05:15:32.212Z,7.32
2023-02-08T05:16:03.638Z,7.50
2023-02-08T05:16:35.003Z,6.65
2023-02-08T05:17:06.358Z,6.85
2023-02-08T05:17:37.742Z,8.00
2023-02-08T05:18:09.067Z,8.93
2023-02-08T05:18:40.426Z,8.27
2023-02-08T05:19:11.862Z,7.90
2023-02-08T05:19:43.223Z,6.25
2023-02-08T05:20:14.573Z,6.15
2023-02-08T05:20:45.936Z,5.88
2023-02-08T05:21:17.306Z,6.30
2023-02-08T05:21:48.639Z,9.00
2023-02-08T05:22:19.997Z,6.32
2023-02-08T05:22:51.352Z,9.32
2023-02-08T05:23:22.688Z,7.53
2023-02-08T05:23:54.009Z,8.05
2023-02-08T05:24:25.388Z,5.37
2023-02-08T05:24:56.726Z,6.10
2023-02-08T05:25:28.097Z,10.13
2023-02-08T05:25:59.483Z,7.97
2023-02-08T05:26:30.801Z,7.50
2023-02-08T05:27:02.110Z,8.50
2023-02-08T05:27:34.114Z,7.35
2023-02-08T05:28:05.481Z,8.63
2023-02-08T05:28:37.348Z,8.27
2023-02-08T05:29:08.865Z,7.93
2023-02-08T05:29:40.244Z,6.97
2023-02-08T05:30:11.731Z,7.35
2023-02-08T05:30:43.334Z,7.95
2023-02-08T05:31:17.336Z,9.95
2023-02-08T05:31:48.904Z,7.68
2023-02-08T05:32:20.428Z,8.48
2023-02-08T05:32:51.765Z,6.70
2023-02-08T05:33:23.108Z,7.13
2023-02-08T05:33:54.463Z,6.78
2023-02-08T05:34:25.818Z,9.30
2023-02-08T05:34:57.171Z,9.18
2023-02-08T05:35:28.517Z,8.55
2023-02-08T05:35:59.838Z,7.57
2023-02-08T05:36:31.175Z,6.63
2023-02-08T05:37:02.530Z,9.75
2023-02-08T05:37:33.898Z,6.85
2023-02-08T05:38:05.256Z,8.52
2023-02-08T05:38:36.613Z,9.20
2023-02-08T05:39:07.925Z,7.27
2023-02-08T05:39:39.435Z,10.63
2023-02-08T05:40:11.036Z,6.80
2023-02-08T05:40:42.620Z,6.63
2023-02-08T05:41:14.124Z,6.65
2023-02-08T05:41:45.491Z,7.45
2023-02-08T05:42:16.830Z,9.00
2023-02-08T05:42:48.221Z,8.52
2023-02-08T05:43:19.579Z,6.75
2023-02-08T05:43:50.932Z,9.70
2023-02-08T05:44:22.296Z,7.73
2023-02-08T05:44:53.641Z,7.95
2023-02-08T05:45:25.053Z,7.70
2023-02-08T05:45:56.421Z,8.48
2023-02-08T05:46:27.852Z,10.38
2023-02-08T05:46:59.228Z,8.70
2023-02-08T05:47:30.601Z,8.13
2023-02-08T05:48:01.936Z,6.27
2023-02-08T05:48:33.680Z,6.15
2023-02-08T05:49:05.218Z,7.20
2023-02-08T05:49:36.614Z,6.32
2023-02-08T05:50:08.088Z,8.82
2023-02-08T05:50:39.762Z,6.72
2023-02-08T05:51:11.198Z,8.75
2023-02-08T05:51:42.554Z,9.57
2023-02-08T05:52:13.897Z,7.82
2023-02-08T05:52:45.337Z,6.20
2023-02-08T05:53:16.650Z,6.32
2023-02-08T05:53:47.984Z,7.45
2023-02-08T05:54:19.305Z,10.05
2023-02-08T05:54:50.662Z,11.57
2023-02-08T05:55:22.040Z,8.77
2023-02-08T05:55:53.407Z,8.13
2023-02-08T05:56:24.745Z,7.57
2023-02-08T05:56:56.066Z,7.07
2023-02-08T05:57:28.661Z,6.85
2023-02-08T05:58:00.989Z,8.45
2023-02-08T05:58:33.476Z,7.88
2023-02-08T05:59:04.834Z,8.60
2023-02-08T05:59:36.201Z,6.13
2023-02-08T06:00:07.974Z,8.48
2023-02-08T06:00:39.829Z,9.10
2023-02-08T06:01:12.364Z,10.10
2023-02-08T06:01:43.685Z,7.93
2023-02-08T06:02:15.012Z,7.45
2023-02-08T06:02:46.377Z,7.78
2023-02-08T06:03:17.832Z,7.90
2023-02-08T06:03:49.278Z,7.97
2023-02-08T06:04:20.712Z,6.28
2023-02-08T06:04:52.051Z,9.48
2023-02-08T06:05:23.397Z,10.55
2023-02-08T06:05:54.748Z,10.60
2023-02-08T06:06:26.341Z,6.93
2023-02-08T06:06:57.696Z,10.35
2023-02-08T06:07:29.031Z,10.05
2023-02-08T06:08:00.418Z,9.10
2023-02-08T06:08:31.793Z,8.25
2023-02-08T06:09:03.328Z,7.82
2023-02-08T06:09:34.668Z,8.40
2023-02-08T06:10:06.236Z,9.20
2023-02-08T06:10:37.633Z,11.73
2023-02-08T06:11:09.002Z,9.10
2023-02-08T06:11:40.348Z,9.48
2023-02-08T06:12:11.681Z,7.85
2023-02-08T06:12:43.044Z,9.30
2023-02-08T06:13:14.381Z,9.63
2023-02-08T06:13:46.142Z,7.68
2023-02-08T06:14:17.502Z,9.15
2023-02-08T06:14:48.840Z,9.35
2023-02-08T06:15:20.209Z,14.48
2023-02-08T06:15:51.553Z,9.98
2023-02-08T06:16:22.892Z,11.07
2023-02-08T06:16:54.262Z,9.98
2023-02-08T06:17:25.701Z,10.65
2023-02-08T06:17:57.057Z,10.38
2023-02-08T06:18:28.509Z,9.43
2023-02-08T06:18:59.863Z,10.52
2023-02-08T06:19:31.271Z,13.00
2023-02-08T06:20:02.680Z,8.90
2023-02-08T06:20:34.005Z,8.93
2023-02-08T06:21:05.761Z,11.20
2023-02-08T06:21:37.090Z,9.30
2023-02-08T06:22:08.436Z,10.57
2023-02-08T06:22:39.763Z,10.65
2023-02-08T06:23:11.137Z,8.90
2023-02-08T06:23:42.481Z,10.88
2023-02-08T06:24:13.822Z,9.77
2023-02-08T06:24:45.280Z,12.38
2023-02-08T06:25:16.810Z,8.93
2023-02-08T06:25:48.154Z,9.75
2023-02-08T06:26:19.510Z,10.88
2023-02-08T06:26:50.953Z,9.73
2023-02-08T06:27:22.383Z,10.57
2023-02-08T06:27:55.366Z,11.38
2023-02-08T06:28:27.962Z,11.52
2023-02-08T06:28:59.611Z,11.10
2023-02-08T06:29:30.940Z,13.32
2023-02-08T06:30:02.321Z,11.63
2023-02-08T06:30:33.658Z,10.07
2023-02-08T06:31:05.153Z,11.45
2023-02-08T06:31:36.690Z,13.63
2023-02-08T06:32:08.125Z,11.65
2023-02-08T06:32:39.608Z,11.40
2023-02-08T06:33:10.993Z,13.80
2023-02-08T06:33:42.363Z,10.40
2023-02-08T06:34:13.682Z,12.80
2023-02-08T06:34:45.025Z,12.23
2023-02-08T06:35:16.392Z,12.40
2023-02-08T06:35:48.246Z,9.55
2023-02-08T06:36:19.601Z,10.70
2023-02-08T06:36:51.084Z,11.75
2023-02-08T06:37:22.434Z,10.70
2023-02-08T06:37:53.839Z,9.20
2023-02-08T06:38:25.178Z,14.70
2023-02-08T06:38:56.520Z,11.75
2023-02-08T06:39:28.258Z,10.25
2023-02-08T06:39:59.609Z,14.00
2023-02-08T06:40:30.967Z,11.80
2023-02-08T06:41:02.312Z,12.13
2023-02-08T06:41:33.634Z,13.63
2023-02-08T06:42:04.980Z,8.75
2023-02-08T06:42:36.358Z,9.82
2023-02-08T06:43:07.734Z,11.20
2023-02-08T06:43:39.063Z,11.68
2023-02-08T06:44:10.428Z,11.70
2023-02-08T06:44:51.434Z,12.48
2023-02-08T06:45:25.654Z,11.02
2023-02-08T06:45:56.998Z,11.75
2023-02-08T06:46:28.429Z,14.23
2023-02-08T06:46:59.764Z,13.73
2023-02-08T06:47:31.356Z,13.70
2023-02-08T06:48:02.746Z,10.90
2023-02-08T06:48:37.200Z,14.55
2023-02-08T06:49:08.551Z,13.90
2023-02-08T06:49:39.907Z,13.48
2023-02-08T06:50:11.289Z,12.23
2023-02-08T06:50:43.038Z,9.63
2023-02-08T06:51:14.597Z,11.25
2023-02-08T06:51:45.916Z,9.38
2023-02-08T06:52:17.376Z,10.55
2023-02-08T06:52:48.758Z,12.50
2023-02-08T06:53:20.120Z,12.40
2023-02-08T06:53:51.520Z,14.55
2023-02-08T06:54:22.877Z,11.13
2023-02-08T06:54:54.211Z,11.73
2023-02-08T06:55:25.554Z,12.88
2023-02-08T06:55:56.884Z,12.13
2023-02-08T06:56:28.224Z,12.32
2023-02-08T06:56:59.557Z,11.07
2023-02-08T06:57:30.875Z,13.65
2023-02-08T06:58:02.200Z,11.90
2023-02-08T06:58:33.616Z,11.07
2023-02-08T06:59:04.960Z,12.85
2023-02-08T06:59:36.309Z,12.27
2023-02-08T07:00:08.677Z,15.68
2023-02-08T07:00:40.238Z,11.05
2023-02-08T07:01:12.809Z,12.10
2023-02-08T07:01:44.153Z,12.27
2023-02-08T07:02:16.831Z,13.00
2023-02-08T07:02:48.188Z,15.55
2023-02-08T07:03:19.519Z,13.25
2023-02-08T07:03:50.861Z,14.40
2023-02-08T07:04:22.161Z,14.03
2023-02-08T07:04:53.489Z,14.27
2023-02-08T07:05:24.828Z,12.18
2023-02-08T07:06:04.923Z,18.10
2023-02-08T07:06:36.795Z,16.92
2023-02-08T07:07:08.454Z,12.45
2023-02-08T07:07:39.945Z,13.32
2023-02-08T07:08:11.306Z,12.82
2023-02-08T07:08:42.945Z,14.00
2023-02-08T07:09:14.284Z,13.68
2023-02-08T07:09:45.619Z,15.32
2023-02-08T07:10:16.992Z,15.07
2023-02-08T07:10:48.344Z,19.60
2023-02-08T07:11:20.488Z,13.88
2023-02-08T07:11:51.805Z,16.23
2023-02-08T07:12:23.166Z,15.43
2023-02-08T07:12:54.554Z,14.25
2023-02-08T07:13:25.888Z,11.30
2023-02-08T07:13:57.234Z,15.20
2023-02-08T07:14:28.578Z,15.27
2023-02-08T07:14:59.904Z,15.55
2023-02-08T07:15:31.240Z,12.05
2023-02-08T07:16:03.163Z,13.68
2023-02-08T07:16:34.565Z,13.53
2023-02-08T07:17:06.225Z,15.05